Time;durP1;ratioP1;P1;durP2;ratioP2;P2;SDS_P1;SDS_P2;PMS_P1;PMS_P2;Temp;Humidity;BMP_temperature;BMP_pressure;BME280_temperature;BME280_humidity;BME280_pressure;Samples;Min_cycle;Max_cycle;Signal;HPM_P1;HPM_P2
2020/12/12 00:01:28;;;;;;;7.47;4.82;;;2.20;99.90;;;;;;4432397;32;20125;-53
2020/12/12 00:03:53;;;;;;;5.30;4.18;;;2.20;99.90;;;;;;4431576;32;20066;-53
2020/12/12 00:06:21;;;;;;;6.97;4.85;;;2.20;99.90;;;;;;4440156;32;20093;-55
2020/12/12 00:08:46;;;;;;;5.62;2.85;;;2.20;99.90;;;;;;4432163;32;20057;-55
2020/12/12 00:11:12;;;;;;;15.80;3.28;;;2.20;99.90;;;;;;4447098;32;20081;-53
2020/12/12 00:13:37;;;;;;;12.75;3.00;;;2.20;99.90;;;;;;4446051;32;20062;-53
2020/12/12 00:16:06;;;;;;;4.80;3.35;;;2.10;99.90;;;;;;4446560;32;20416;-53
2020/12/12 00:18:32;;;;;;;5.97;4.10;;;2.20;99.90;;;;;;4446758;32;20104;-59
2020/12/12 00:20:57;;;;;;;3.60;2.58;;;2.20;99.90;;;;;;4433456;32;20052;-54
2020/12/12 00:23:23;;;;;;;6.80;3.60;;;2.10;99.90;;;;;;4431857;32;20416;-53
2020/12/12 00:25:48;;;;;;;8.77;4.10;;;2.00;99.90;;;;;;4431164;32;20061;-55
2020/12/12 00:28:14;;;;;;;4.85;3.17;;;2.00;99.90;;;;;;4430790;32;20530;-56
2020/12/12 00:30:40;;;;;;;5.30;2.75;;;1.90;99.90;;;;;;4431676;32;20482;-56
2020/12/12 00:33:05;;;;;;;5.03;2.78;;;1.90;99.90;;;;;;4430890;32;20070;-55
2020/12/12 00:35:31;;;;;;;3.10;2.25;;;1.90;99.90;;;;;;4432591;32;20061;-54
2020/12/12 00:37:56;;;;;;;3.35;3.05;;;1.90;99.90;;;;;;4430503;32;20086;-54
2020/12/12 00:40:22;;;;;;;4.97;3.35;;;1.90;99.90;;;;;;4431357;32;20081;-56
2020/12/12 00:42:47;;;;;;;3.62;2.78;;;2.00;99.90;;;;;;4431871;32;20186;-53
2020/12/12 00:45:13;;;;;;;48.42;5.22;;;1.90;99.90;;;;;;4431563;32;20082;-57
2020/12/12 00:47:38;;;;;;;6.82;3.12;;;1.90;99.90;;;;;;4415834;32;20328;-55
2020/12/12 00:50:04;;;;;;;7.00;3.72;;;1.90;99.90;;;;;;4414686;32;20116;-52
2020/12/12 00:52:29;;;;;;;7.45;2.72;;;1.80;99.90;;;;;;4416062;32;20523;-52
2020/12/12 00:54:55;;;;;;;23.77;4.32;;;1.80;99.90;;;;;;4415387;32;20061;-57
2020/12/12 00:57:20;;;;;;;5.37;3.72;;;1.90;99.90;;;;;;4416234;32;20412;-54
2020/12/12 00:59:46;;;;;;;14.13;5.53;;;1.90;99.90;;;;;;4414899;32;20518;-57
2020/12/12 01:02:12;;;;;;;3.62;2.45;;;1.90;99.90;;;;;;4415845;32;20074;-57
2020/12/12 01:04:37;;;;;;;27.45;3.22;;;1.90;99.90;;;;;;4416933;32;20148;-54
2020/12/12 01:07:03;;;;;;;6.43;3.83;;;1.90;99.90;;;;;;4444278;32;20112;-54
2020/12/12 01:09:29;;;;;;;5.30;3.28;;;1.80;99.90;;;;;;4431846;32;20061;-56
2020/12/12 01:11:56;;;;;;;6.53;4.12;;;1.80;99.90;;;;;;4445702;32;20077;-56
2020/12/12 01:14:21;;;;;;;3.62;3.00;;;1.70;99.90;;;;;;4431538;32;20111;-53
2020/12/12 01:16:47;;;;;;;2.80;2.53;;;1.70;99.90;;;;;;4446655;32;20073;-56
2020/12/12 01:19:12;;;;;;;13.05;4.60;;;1.80;99.90;;;;;;4445784;32;20080;-57
2020/12/12 01:21:38;;;;;;;6.28;3.00;;;1.80;99.90;;;;;;4434996;32;20503;-54
2020/12/12 01:24:04;;;;;;;11.38;4.60;;;1.80;99.90;;;;;;4430430;32;20061;-56
2020/12/12 01:26:31;;;;;;;9.68;3.55;;;1.80;99.90;;;;;;4428915;32;20065;-56
2020/12/12 01:28:57;;;;;;;4.05;3.17;;;1.80;99.90;;;;;;4429553;32;20129;-54
2020/12/12 01:31:22;;;;;;;6.57;3.58;;;1.80;99.90;;;;;;4417246;32;20074;-53
2020/12/12 01:33:48;;;;;;;19.87;5.85;;;1.90;99.90;;;;;;4431008;32;20120;-55
2020/12/12 01:36:13;;;;;;;8.25;3.72;;;1.80;99.90;;;;;;4442806;32;20111;-52
2020/12/12 01:38:39;;;;;;;2.70;2.42;;;1.80;99.90;;;;;;4441921;32;20058;-54
2020/12/12 01:41:04;;;;;;;6.40;4.07;;;1.70;99.90;;;;;;4430042;32;20523;-53
2020/12/12 01:43:30;;;;;;;2.72;2.53;;;1.80;99.90;;;;;;4429803;32;20061;-56
2020/12/12 01:45:56;;;;;;;6.40;4.25;;;1.80;99.90;;;;;;4429601;32;20178;-55
2020/12/12 01:48:21;;;;;;;4.53;3.17;;;1.80;99.90;;;;;;4401426;32;20404;-56
2020/12/12 01:50:47;;;;;;;23.77;5.75;;;1.90;99.90;;;;;;4415181;32;20109;-57
2020/12/12 01:53:14;;;;;;;3.83;2.87;;;1.90;99.90;;;;;;4413892;32;20062;-54
2020/12/12 01:55:45;;;;;;;9.35;2.95;;;1.90;99.90;;;;;;4412706;32;20062;-54
2020/12/12 01:58:12;;;;;;;1.98;1.65;;;1.80;99.90;;;;;;4414424;32;20061;-54
2020/12/12 02:00:37;;;;;;;3.08;2.55;;;1.90;99.90;;;;;;4414606;32;20070;-54
2020/12/12 02:03:03;;;;;;;6.55;3.83;;;1.80;99.90;;;;;;4417517;32;20070;-58
2020/12/12 02:05:45;;;;;;;8.60;4.07;;;1.80;99.90;;;;;;4425105;32;20129;-53
2020/12/12 02:08:14;;;;;;;21.48;3.85;;;1.80;99.90;;;;;;4432193;32;20432;-54
2020/12/12 02:10:42;;;;;;;2.50;2.12;;;1.80;99.90;;;;;;4441163;32;20082;-52
2020/12/12 02:13:09;;;;;;;7.62;3.05;;;1.80;99.90;;;;;;4417707;32;20101;-53
2020/12/12 02:15:36;;;;;;;3.90;3.42;;;1.90;99.90;;;;;;4420105;32;20062;-54
2020/12/12 02:18:03;;;;;;;7.60;3.72;;;1.80;99.90;;;;;;4432898;32;20098;-53
2020/12/12 02:20:28;;;;;;;2.55;2.37;;;1.80;99.90;;;;;;4419407;32;20062;-52
2020/12/12 02:22:55;;;;;;;2.83;2.42;;;1.80;99.90;;;;;;4433874;32;20078;-53
2020/12/12 02:25:20;;;;;;;3.42;1.92;;;1.80;99.90;;;;;;4431775;32;20073;-54
2020/12/12 02:27:48;;;;;;;2.67;2.47;;;1.80;99.90;;;;;;4418014;32;20536;-54
2020/12/12 02:30:14;;;;;;;5.93;3.70;;;1.80;99.90;;;;;;4418654;32;20108;-54
2020/12/12 02:32:39;;;;;;;7.75;4.18;;;1.80;99.90;;;;;;4432111;32;20562;-54
2020/12/12 02:35:05;;;;;;;14.82;4.95;;;1.80;99.90;;;;;;4431717;32;20069;-54
2020/12/12 02:37:31;;;;;;;4.07;3.00;;;1.80;99.90;;;;;;4431606;32;20073;-57
2020/12/12 02:39:57;;;;;;;6.25;2.53;;;1.80;99.90;;;;;;4418042;32;20061;-52
2020/12/12 02:42:22;;;;;;;11.23;5.22;;;1.80;99.90;;;;;;4432698;32;20074;-54
2020/12/12 02:44:53;;;;;;;3.10;2.83;;;1.80;99.90;;;;;;4432200;32;20112;-55
2020/12/12 02:47:20;;;;;;;8.93;2.95;;;1.80;99.90;;;;;;4416424;32;20523;-56
2020/12/12 02:49:59;;;;;;;5.47;3.58;;;1.80;99.90;;;;;;4418315;32;20562;-58
2020/12/12 02:52:25;;;;;;;7.30;4.18;;;1.80;99.90;;;;;;4417919;32;20071;-54
2020/12/12 02:54:50;;;;;;;7.95;4.00;;;1.80;99.90;;;;;;4416890;32;20397;-54
2020/12/12 02:57:16;;;;;;;7.75;3.75;;;1.90;99.90;;;;;;4416664;32;20109;-55
2020/12/12 02:59:41;;;;;;;5.47;2.95;;;1.90;99.90;;;;;;4416635;32;20073;-56
2020/12/12 03:02:07;;;;;;;3.65;2.95;;;1.90;99.90;;;;;;4415909;32;20070;-56
2020/12/12 03:04:32;;;;;;;22.35;3.92;;;1.90;99.90;;;;;;4418026;32;20112;-56
2020/12/12 03:06:57;;;;;;;3.45;2.85;;;1.80;99.90;;;;;;4432608;32;20506;-54
2020/12/12 03:09:23;;;;;;;3.80;3.47;;;1.90;99.90;;;;;;4432928;32;20069;-57
2020/12/12 03:11:48;;;;;;;7.03;3.12;;;1.80;99.90;;;;;;4432720;32;20311;-52
2020/12/12 03:14:14;;;;;;;4.15;2.75;;;1.80;99.90;;;;;;4431352;32;20514;-53
2020/12/12 03:16:39;;;;;;;12.43;2.47;;;1.80;99.90;;;;;;4432095;32;20068;-54
2020/12/12 03:19:05;;;;;;;16.95;6.32;;;1.80;99.90;;;;;;4431556;32;20074;-56
2020/12/12 03:21:30;;;;;;;7.47;3.75;;;1.90;99.90;;;;;;4431845;32;20061;-57
2020/12/12 03:23:56;;;;;;;6.45;4.35;;;1.80;99.90;;;;;;4430973;32;20112;-54
2020/12/12 03:26:21;;;;;;;13.73;6.30;;;1.80;99.90;;;;;;4431725;32;20096;-52
2020/12/12 03:28:46;;;;;;;3.80;3.03;;;1.80;99.90;;;;;;4430507;32;20061;-57
2020/12/12 03:31:12;;;;;;;1.85;1.65;;;1.80;99.90;;;;;;4431263;32;20119;-57
2020/12/12 03:33:37;;;;;;;11.98;4.72;;;1.80;99.90;;;;;;4418951;32;20057;-56
2020/12/12 03:36:03;;;;;;;16.37;4.03;;;1.80;99.90;;;;;;4431955;32;20086;-53
2020/12/12 03:38:28;;;;;;;9.68;2.92;;;1.80;99.90;;;;;;4431923;32;20057;-55
2020/12/12 03:40:54;;;;;;;3.67;2.60;;;1.80;99.90;;;;;;4431407;32;20085;-53
2020/12/12 03:43:19;;;;;;;1.67;1.58;;;1.90;99.90;;;;;;4430287;32;20069;-56
2020/12/12 03:45:45;;;;;;;2.28;1.85;;;1.70;99.90;;;;;;4431065;32;20115;-55
2020/12/12 03:48:11;;;;;;;3.42;2.87;;;1.70;99.90;;;;;;4431875;32;20066;-54
2020/12/12 03:50:36;;;;;;;5.22;3.20;;;1.70;99.90;;;;;;4416967;32;20131;-53
2020/12/12 03:53:01;;;;;;;2.78;2.53;;;1.70;99.90;;;;;;4432365;32;20057;-55
2020/12/12 03:55:27;;;;;;;3.05;2.22;;;1.80;99.90;;;;;;4416888;32;20570;-53
2020/12/12 03:57:52;;;;;;;2.53;2.03;;;1.70;99.90;;;;;;4431322;32;20070;-57
2020/12/12 04:00:18;;;;;;;16.70;2.72;;;1.80;99.90;;;;;;4432478;32;20069;-56
2020/12/12 04:02:43;;;;;;;4.40;2.55;;;1.80;99.90;;;;;;4431781;32;20082;-55
2020/12/12 04:05:09;;;;;;;9.90;4.18;;;1.80;99.90;;;;;;4432256;32;20061;-55
2020/12/12 04:07:35;;;;;;;2.50;1.73;;;1.70;99.90;;;;;;4432544;32;20078;-53
2020/12/12 04:10:00;;;;;;;10.45;4.10;;;1.80;99.90;;;;;;4431674;32;20057;-53
2020/12/12 04:12:26;;;;;;;1.95;1.77;;;1.70;99.90;;;;;;4430651;32;20532;-54
2020/12/12 04:14:51;;;;;;;3.30;2.40;;;1.70;99.90;;;;;;4431093;32;20128;-54
2020/12/12 04:17:17;;;;;;;7.22;3.15;;;1.70;99.90;;;;;;4430864;32;20065;-53
2020/12/12 04:19:42;;;;;;;6.37;4.07;;;1.70;99.90;;;;;;4431650;32;20065;-52
2020/12/12 04:22:07;;;;;;;6.95;3.97;;;1.60;99.90;;;;;;4432211;32;20725;-55
2020/12/12 04:24:33;;;;;;;6.07;3.70;;;1.60;99.90;;;;;;4430525;32;20423;-57
2020/12/12 04:26:59;;;;;;;7.97;4.10;;;1.60;99.90;;;;;;4430197;32;20393;-54
2020/12/12 04:29:24;;;;;;;2.50;1.90;;;1.60;99.90;;;;;;4416583;32;20069;-54
2020/12/12 04:31:50;;;;;;;3.33;2.67;;;1.60;99.90;;;;;;4430893;32;20109;-54
2020/12/12 04:34:15;;;;;;;7.18;3.83;;;1.50;99.90;;;;;;4432895;32;20061;-56
2020/12/12 04:36:41;;;;;;;2.50;1.75;;;1.50;99.90;;;;;;4417131;32;20551;-55
2020/12/12 04:39:06;;;;;;;12.02;4.40;;;1.50;99.90;;;;;;4429938;32;20109;-54
2020/12/12 04:41:34;;;;;;;7.78;3.60;;;1.50;99.90;;;;;;4417567;32;20518;-52
2020/12/12 04:44:00;;;;;;;1.52;1.42;;;1.50;99.90;;;;;;4417452;32;20076;-57
2020/12/12 04:46:27;;;;;;;9.52;3.90;;;1.50;99.90;;;;;;4429985;32;20413;-53
2020/12/12 04:48:53;;;;;;;2.87;2.53;;;1.50;99.90;;;;;;4431527;32;20058;-56
2020/12/12 04:51:18;;;;;;;3.67;2.90;;;1.50;99.90;;;;;;4431435;32;20074;-54
2020/12/12 04:53:44;;;;;;;1.55;1.45;;;1.60;99.90;;;;;;4430899;32;20076;-56
2020/12/12 04:56:21;;;;;;;7.15;3.20;;;1.60;99.90;;;;;;4417011;32;20116;-55
2020/12/12 04:58:50;;;;;;;5.78;3.28;;;1.50;99.90;;;;;;4416306;32;20066;-55
2020/12/12 05:01:17;;;;;;;3.30;2.55;;;1.50;99.90;;;;;;4416542;32;20411;-54
2020/12/12 05:03:44;;;;;;;18.92;3.05;;;1.50;99.90;;;;;;4432158;32;20061;-55
2020/12/12 05:06:10;;;;;;;2.03;1.85;;;1.50;99.90;;;;;;4417779;32;20069;-52
2020/12/12 05:08:35;;;;;;;6.57;2.85;;;1.50;99.90;;;;;;4415113;32;20078;-55
2020/12/12 05:11:02;;;;;;;13.62;2.87;;;1.60;99.90;;;;;;4414590;32;20062;-53
2020/12/12 05:13:29;;;;;;;6.30;2.58;;;1.50;99.90;;;;;;4414614;32;20449;-54
2020/12/12 05:15:56;;;;;;;2.87;2.60;;;1.50;99.90;;;;;;4416369;32;20074;-54
2020/12/12 05:18:23;;;;;;;1.17;1.08;;;1.60;99.90;;;;;;4413756;32;20744;-55
2020/12/12 05:20:49;;;;;;;2.45;2.25;;;1.50;99.90;;;;;;4414472;32;20083;-54
2020/12/12 05:23:20;;;;;;;3.40;2.97;;;1.60;99.90;;;;;;4414374;32;20069;-52
2020/12/12 05:25:47;;;;;;;4.72;2.90;;;1.50;99.90;;;;;;4414408;32;20062;-55
2020/12/12 05:28:15;;;;;;;6.68;4.05;;;1.50;99.90;;;;;;4413281;32;20120;-56
2020/12/12 05:30:42;;;;;;;9.05;3.80;;;1.50;99.90;;;;;;4414066;32;20090;-56
2020/12/12 05:33:11;;;;;;;11.55;3.97;;;1.60;99.90;;;;;;4414434;32;20070;-55
2020/12/12 05:35:37;;;;;;;3.28;2.33;;;1.60;99.90;;;;;;4429435;32;20057;-53
2020/12/12 05:38:05;;;;;;;9.30;3.20;;;1.60;99.90;;;;;;4431677;32;20074;-54
2020/12/12 05:40:32;;;;;;;2.08;1.75;;;1.70;99.90;;;;;;4419318;32;20362;-56
2020/12/12 05:43:02;;;;;;;3.80;2.37;;;1.60;99.90;;;;;;4415681;32;20065;-53
2020/12/12 05:45:28;;;;;;;;;;;1.50;99.90;;;;;;4416161;32;20117;-53
2020/12/12 05:47:53;;;;;;;2.65;2.03;;;1.50;99.90;;;;;;4417238;32;19956;-52
2020/12/12 05:52:52;;;;;;;2.70;1.62;;;1.50;99.90;;;;;;4417326;32;20082;-53
2020/12/12 05:55:20;;;;;;;2.78;2.08;;;1.50;99.90;;;;;;4415376;32;20058;-52
2020/12/12 05:57:46;;;;;;;1.35;1.25;;;1.50;99.90;;;;;;4417350;32;20073;-53
2020/12/12 06:00:12;;;;;;;2.62;2.05;;;1.50;99.90;;;;;;4417773;32;20057;-56
2020/12/12 06:02:42;;;;;;;4.03;3.22;;;1.40;99.90;;;;;;4418304;32;20068;-52
2020/12/12 06:05:13;;;;;;;;;;;1.50;99.90;;;;;;4417205;32;20058;-56
2020/12/12 06:07:50;;;;;;;2.53;2.10;;;1.40;99.90;;;;;;4417720;32;20363;-52
2020/12/12 06:10:17;;;;;;;3.75;2.05;;;1.40;99.90;;;;;;4418313;32;20062;-54
2020/12/12 06:12:47;;;;;;;3.58;2.33;;;1.40;99.90;;;;;;4417617;32;20061;-54
2020/12/12 06:15:18;;;;;;;2.97;2.42;;;1.50;99.90;;;;;;4417841;32;20054;-54
2020/12/12 06:18:04;;;;;;;1.25;1.17;;;1.50;99.90;;;;;;4416581;32;20082;-53
2020/12/12 06:20:30;;;;;;;3.42;3.10;;;1.50;99.90;;;;;;4416871;32;20054;-53
2020/12/12 06:22:57;;;;;;;1.87;1.77;;;1.40;99.90;;;;;;4416168;32;20194;-55
2020/12/12 06:25:24;;;;;;;4.30;1.87;;;1.40;99.90;;;;;;4417053;32;20065;-56
2020/12/12 06:27:54;;;;;;;16.33;5.62;;;1.40;99.90;;;;;;4417476;32;20066;-56
2020/12/12 06:30:23;;;;;;;3.10;2.33;;;1.40;99.90;;;;;;4416514;32;20069;-53
2020/12/12 06:32:48;;;;;;;14.13;3.95;;;1.40;99.90;;;;;;4415909;32;20058;-53
2020/12/12 06:35:14;;;;;;;2.97;2.53;;;1.40;99.90;;;;;;4432319;32;20535;-55
2020/12/12 06:37:40;;;;;;;2.65;2.12;;;1.40;99.90;;;;;;4433107;32;20127;-55
2020/12/12 06:40:09;;;;;;;2.62;1.40;;;1.40;99.90;;;;;;4418423;32;20065;-55
2020/12/12 06:42:37;;;;;;;9.18;2.12;;;1.40;99.90;;;;;;4418383;32;20065;-54
2020/12/12 06:45:24;;;;;;;4.28;2.65;;;1.40;99.90;;;;;;4418066;32;20065;-56
2020/12/12 06:47:52;;;;;;;1.98;1.67;;;1.40;99.90;;;;;;4413175;32;20073;-57
2020/12/12 06:50:21;;;;;;;3.05;2.45;;;1.50;99.90;;;;;;4390530;32;20073;-54
2020/12/12 06:52:47;;;;;;;1.77;1.42;;;1.50;99.90;;;;;;4432821;32;20113;-53
2020/12/12 06:55:15;;;;;;;7.47;2.92;;;1.50;99.90;;;;;;4431059;32;20112;-55
2020/12/12 07:00:29;;;;;;;1.12;1.12;;;1.50;99.90;;;;;;4417740;32;20112;-53
2020/12/12 07:03:00;;;;;;;7.93;2.90;;;1.50;99.90;;;;;;4421592;32;20128;-54
2020/12/12 07:05:27;;;;;;;;;;;1.50;99.90;;;;;;4411364;32;20049;-53
2020/12/12 07:07:53;;;;;;;6.72;3.50;;;1.50;99.90;;;;;;4429447;32;20386;-57
2020/12/12 07:10:19;;;;;;;2.22;2.03;;;1.60;99.90;;;;;;4431432;32;20058;-54
2020/12/12 07:12:45;;;;;;;5.75;3.35;;;1.50;99.90;;;;;;4417182;32;20077;-54
2020/12/12 07:15:10;;;;;;;4.05;2.95;;;1.60;99.90;;;;;;4418544;32;20078;-56
2020/12/12 07:17:36;;;;;;;2.95;2.45;;;1.60;99.90;;;;;;4430892;32;20081;-53
2020/12/12 07:20:03;;;;;;;4.72;2.85;;;1.60;99.90;;;;;;4431183;32;20061;-55
2020/12/12 07:22:29;;;;;;;2.85;2.40;;;1.60;99.90;;;;;;4418622;32;20100;-56
2020/12/12 07:24:56;;;;;;;6.07;3.92;;;1.60;99.90;;;;;;4432153;32;20114;-53
2020/12/12 07:27:21;;;;;;;3.95;2.45;;;1.70;99.90;;;;;;4431634;32;20168;-55
2020/12/12 07:29:47;;;;;;;8.50;2.90;;;1.70;99.90;;;;;;4430986;32;20081;-55
2020/12/12 07:32:13;;;;;;;3.42;1.87;;;1.80;99.90;;;;;;4417881;32;20432;-58
2020/12/12 07:34:38;;;;;;;8.57;2.17;;;1.80;99.90;;;;;;4431794;32;20168;-54
2020/12/12 07:37:06;;;;;;;1.73;1.62;;;1.70;99.90;;;;;;4432105;32;20061;-55
2020/12/12 07:39:35;;;;;;;3.60;2.80;;;1.70;99.90;;;;;;4418492;32;20070;-57
2020/12/12 07:42:02;;;;;;;2.40;1.60;;;1.70;99.90;;;;;;4432420;32;20091;-54
2020/12/12 07:44:30;;;;;;;6.68;2.90;;;1.70;99.90;;;;;;4430852;32;20057;-54
2020/12/12 07:46:59;;;;;;;3.58;1.92;;;1.70;99.90;;;;;;4431968;32;20057;-56
2020/12/12 07:49:24;;;;;;;3.60;2.90;;;1.80;99.90;;;;;;4430698;32;20116;-53
2020/12/12 07:51:58;;;;;;;2.08;1.85;;;1.80;99.90;;;;;;4430791;32;20077;-57
2020/12/12 07:54:31;;;;;;;5.70;3.33;;;1.80;99.90;;;;;;4416021;32;20185;-53
2020/12/12 07:56:56;;;;;;;2.28;2.08;;;1.80;99.90;;;;;;4416879;32;20082;-55
2020/12/12 07:59:22;;;;;;;10.40;3.65;;;1.90;99.90;;;;;;4430416;32;20061;-56
2020/12/12 08:01:48;;;;;;;2.25;2.05;;;1.90;99.90;;;;;;4404319;32;20077;-54
2020/12/12 08:04:18;;;;;;;6.43;3.33;;;1.90;99.90;;;;;;4408020;32;20077;-56
2020/12/12 08:06:44;;;;;;;2.33;2.12;;;1.90;99.90;;;;;;4417147;32;20156;-54
2020/12/12 08:09:09;;;;;;;2.08;1.87;;;2.00;99.90;;;;;;4431233;32;20131;-57
2020/12/12 08:11:35;;;;;;;7.95;3.22;;;2.00;99.90;;;;;;4431698;32;20463;-57
2020/12/12 08:14:03;;;;;;;10.63;2.75;;;2.00;99.90;;;;;;4417240;32;20057;-54
2020/12/12 08:16:37;;;;;;;2.58;2.22;;;2.10;99.90;;;;;;4417694;32;20053;-57
2020/12/12 08:19:04;;;;;;;8.63;2.97;;;2.00;99.90;;;;;;4430953;32;20514;-56
2020/12/12 08:21:29;;;;;;;3.70;3.20;;;2.00;99.90;;;;;;4421001;32;20073;-55
2020/12/12 08:23:55;;;;;;;5.57;3.67;;;2.00;99.90;;;;;;4425121;32;20528;-56
2020/12/12 08:26:22;;;;;;;3.60;2.50;;;2.00;99.90;;;;;;4429540;32;20062;-56
2020/12/12 08:28:48;;;;;;;7.12;4.50;;;2.00;99.90;;;;;;4430414;32;20469;-54
2020/12/12 08:31:16;;;;;;;4.62;2.72;;;2.00;99.90;;;;;;4430311;32;20392;-55
2020/12/12 08:33:43;;;;;;;3.67;2.53;;;2.10;99.90;;;;;;4429674;32;20077;-54
2020/12/12 08:36:11;;;;;;;6.57;2.87;;;2.10;99.90;;;;;;4430705;32;20074;-54
2020/12/12 08:38:37;;;;;;;3.83;2.72;;;2.10;99.90;;;;;;4431155;32;20336;-55
2020/12/12 08:41:10;;;;;;;8.18;4.10;;;2.20;99.90;;;;;;4427668;32;77230;-55
2020/12/12 08:43:36;;;;;;;6.43;3.37;;;2.10;99.90;;;;;;4430550;32;20069;-52
2020/12/12 08:46:02;;;;;;;1.55;1.45;;;2.10;99.90;;;;;;4430704;32;20057;-56
2020/12/12 08:48:33;;;;;;;8.27;2.08;;;2.10;99.90;;;;;;4417989;32;20092;-57
2020/12/12 08:51:00;;;;;;;;;;;2.10;99.90;;;;;;4417896;32;20291;-53
2020/12/12 08:53:35;;;;;;;8.93;3.80;;;2.10;99.90;;;;;;4432364;32;19997;-57
2020/12/12 08:56:22;;;;;;;3.80;2.40;;;2.10;99.90;;;;;;4430770;32;20050;-57
2020/12/12 08:58:51;;;;;;;3.95;2.65;;;2.20;99.90;;;;;;4419017;32;20097;-57
2020/12/12 09:01:21;;;;;;;5.93;3.60;;;2.20;99.90;;;;;;4431978;32;20054;-54
2020/12/12 09:04:04;;;;;;;9.95;4.55;;;2.10;99.90;;;;;;4431665;32;20097;-57
2020/12/12 09:06:34;;;;;;;4.10;2.92;;;2.10;99.90;;;;;;4431916;32;20054;-57
2020/12/12 09:09:23;;;;;;;18.70;4.18;;;2.10;99.90;;;;;;4431759;32;20065;-57
2020/12/12 09:11:54;;;;;;;4.87;3.10;;;2.10;99.90;;;;;;4406022;32;20078;-57
2020/12/12 09:14:20;;;;;;;6.12;3.40;;;2.10;99.90;;;;;;4429586;32;20074;-55
2020/12/12 09:16:48;;;;;;;3.95;3.15;;;2.20;99.90;;;;;;4431323;32;20077;-53
2020/12/12 09:19:14;;;;;;;7.62;3.70;;;2.20;99.90;;;;;;4416474;32;20086;-54
2020/12/12 09:21:40;;;;;;;12.52;3.92;;;2.30;99.90;;;;;;4431622;32;20082;-54
2020/12/12 09:24:05;;;;;;;5.62;3.87;;;2.40;99.90;;;;;;4431285;32;20061;-58
2020/12/12 09:26:31;;;;;;;5.87;4.53;;;2.30;99.90;;;;;;4429052;32;20069;-56
2020/12/12 09:28:57;;;;;;;4.28;2.80;;;2.30;99.90;;;;;;4429344;32;20124;-58
2020/12/12 09:31:24;;;;;;;6.72;3.60;;;2.30;99.90;;;;;;4430920;32;20120;-54
2020/12/12 09:33:49;;;;;;;6.30;2.75;;;2.30;99.90;;;;;;4416936;32;20074;-52
2020/12/12 09:36:15;;;;;;;3.12;2.50;;;2.40;99.90;;;;;;4430329;32;20127;-53
2020/12/12 09:38:41;;;;;;;4.03;3.20;;;2.40;99.90;;;;;;4414718;32;20090;-57
2020/12/12 09:41:06;;;;;;;4.68;3.65;;;2.40;99.90;;;;;;4414459;32;20065;-54
2020/12/12 09:43:32;;;;;;;2.42;2.20;;;2.40;99.90;;;;;;4414824;32;20078;-53
2020/12/12 09:45:58;;;;;;;3.72;2.53;;;2.40;99.90;;;;;;4414869;32;20062;-56
2020/12/12 09:48:23;;;;;;;2.17;2.00;;;2.50;99.90;;;;;;4430624;32;20062;-55
2020/12/12 09:50:49;;;;;;;2.83;2.35;;;2.40;99.90;;;;;;4430938;32;20085;-56
2020/12/12 09:53:14;;;;;;;5.78;3.67;;;2.40;99.90;;;;;;4417014;32;20077;-55
2020/12/12 09:55:41;;;;;;;5.72;3.70;;;2.40;99.90;;;;;;4439415;32;20065;-54
2020/12/12 09:58:07;;;;;;;10.68;4.15;;;2.30;99.90;;;;;;4433058;32;20065;-57
2020/12/12 10:00:36;;;;;;;3.08;2.55;;;2.30;99.90;;;;;;4431753;32;20069;-54
2020/12/12 10:03:02;;;;;;;9.07;3.80;;;2.30;99.90;;;;;;4446294;32;20135;-57
2020/12/12 10:05:28;;;;;;;10.65;2.92;;;2.40;99.90;;;;;;4437483;32;20082;-52
2020/12/12 10:07:55;;;;;;;3.30;2.47;;;2.40;99.90;;;;;;4415603;32;20074;-56
2020/12/12 10:10:22;;;;;;;4.95;3.50;;;2.30;99.90;;;;;;4430652;32;20420;-55
2020/12/12 10:12:47;;;;;;;9.88;5.20;;;2.30;99.90;;;;;;4416115;32;20065;-53
2020/12/12 10:15:13;;;;;;;2.28;1.83;;;2.20;99.90;;;;;;4421847;32;20093;-55
2020/12/12 10:17:39;;;;;;;2.33;2.12;;;2.20;99.90;;;;;;4444657;32;20104;-54
2020/12/12 10:20:04;;;;;;;9.52;5.22;;;2.20;99.90;;;;;;4445423;32;20065;-55
2020/12/12 10:22:30;;;;;;;1.87;1.77;;;2.30;99.90;;;;;;4432316;32;20089;-57
2020/12/12 10:24:55;;;;;;;13.93;5.53;;;2.30;99.90;;;;;;4442295;32;20128;-58
2020/12/12 10:27:21;;;;;;;2.92;2.58;;;2.30;99.90;;;;;;4432469;32;20790;-56
2020/12/12 10:29:46;;;;;;;7.50;3.03;;;2.30;99.90;;;;;;4432901;32;20069;-58
2020/12/12 10:32:12;;;;;;;5.22;2.45;;;2.40;99.90;;;;;;4438131;32;20082;-58
2020/12/12 10:34:37;;;;;;;7.82;4.12;;;2.40;99.90;;;;;;4437346;32;20077;-58
2020/12/12 10:37:03;;;;;;;3.08;2.70;;;2.40;99.90;;;;;;4432611;32;20094;-54
2020/12/12 10:39:33;;;;;;;2.90;2.37;;;2.40;99.90;;;;;;4433061;32;20069;-56
2020/12/12 10:41:59;;;;;;;6.13;3.53;;;2.40;99.90;;;;;;4433509;32;20065;-52
2020/12/12 10:44:25;;;;;;;4.87;2.53;;;2.40;99.90;;;;;;4419780;32;20534;-53
2020/12/12 10:46:50;;;;;;;5.43;3.58;;;2.40;99.90;;;;;;4443868;32;20134;-57
2020/12/12 10:49:16;;;;;;;6.45;2.92;;;2.30;99.90;;;;;;4432156;32;20119;-55
2020/12/12 10:51:47;;;;;;;2.47;2.20;;;2.30;99.90;;;;;;4432957;32;20065;-56
2020/12/12 10:54:14;;;;;;;3.22;2.08;;;2.30;99.90;;;;;;4432831;32;20073;-53
2020/12/12 10:56:39;;;;;;;7.95;3.83;;;2.40;99.90;;;;;;4446306;32;20081;-56
2020/12/12 10:59:05;;;;;;;3.42;2.40;;;2.40;99.90;;;;;;4447905;32;20501;-54
2020/12/12 11:01:31;;;;;;;6.70;3.65;;;2.40;99.90;;;;;;4448246;32;20069;-56
2020/12/12 11:03:56;;;;;;;6.40;4.28;;;2.30;99.90;;;;;;4447170;32;20061;-56
2020/12/12 11:06:22;;;;;;;7.37;2.92;;;2.30;99.90;;;;;;4433581;32;20404;-56
2020/12/12 11:08:47;;;;;;;7.43;3.78;;;2.30;99.90;;;;;;4432074;32;20076;-53
2020/12/12 11:11:13;;;;;;;3.53;2.95;;;2.30;99.90;;;;;;4431897;32;20078;-53
2020/12/12 11:13:38;;;;;;;3.35;3.05;;;2.30;99.90;;;;;;4420381;32;20081;-57
2020/12/12 11:16:03;;;;;;;4.05;2.58;;;2.30;99.90;;;;;;4426568;32;20062;-56
2020/12/12 11:18:29;;;;;;;3.55;2.83;;;2.30;99.90;;;;;;4407807;32;20068;-54
2020/12/12 11:20:54;;;;;;;2.12;1.52;;;2.40;99.90;;;;;;4418643;32;20116;-53
2020/12/12 11:23:20;;;;;;;4.62;3.30;;;2.30;99.90;;;;;;4423668;32;20066;-53
2020/12/12 11:25:45;;;;;;;7.35;4.10;;;2.30;99.90;;;;;;4437637;32;20084;-55
2020/12/12 11:28:11;;;;;;;3.97;3.35;;;2.30;99.90;;;;;;4442045;32;20479;-56
2020/12/12 11:30:36;;;;;;;3.45;2.60;;;2.30;99.90;;;;;;4424847;32;20540;-52
2020/12/12 11:33:04;;;;;;;2.80;2.15;;;2.20;99.90;;;;;;4423416;32;20086;-53
2020/12/12 11:35:39;;;;;;;5.80;3.08;;;2.30;99.90;;;;;;4424407;32;20061;-53
2020/12/12 11:38:15;;;;;;;3.92;3.15;;;2.30;99.90;;;;;;4416903;32;20061;-57
2020/12/12 11:40:53;;;;;;;2.47;2.28;;;2.30;99.90;;;;;;4423897;32;20089;-56
2020/12/12 11:43:40;;;;;;;1.90;1.73;;;2.30;99.90;;;;;;4426580;32;20070;-53
2020/12/12 11:46:16;;;;;;;7.25;3.33;;;2.40;99.90;;;;;;4414875;32;20069;-53
2020/12/12 11:48:45;;;;;;;5.65;2.22;;;2.40;99.90;;;;;;4430882;32;20061;-54
2020/12/12 11:51:10;;;;;;;3.10;2.53;;;2.40;99.90;;;;;;4431117;32;20086;-56
2020/12/12 11:53:36;;;;;;;1.92;1.77;;;2.40;99.90;;;;;;4422149;32;20061;-54
2020/12/12 11:56:01;;;;;;;8.02;3.47;;;2.40;99.90;;;;;;4420845;32;20074;-56
2020/12/12 11:58:27;;;;;;;4.18;3.05;;;2.50;99.90;;;;;;4428375;32;20114;-54
2020/12/12 12:00:53;;;;;;;1.92;1.75;;;2.50;99.90;;;;;;4423351;32;20085;-57
2020/12/12 12:03:18;;;;;;;4.65;3.35;;;2.50;99.90;;;;;;4417494;32;20077;-55
2020/12/12 12:05:47;;;;;;;6.53;3.30;;;2.40;99.90;;;;;;4424139;32;20413;-56
2020/12/12 12:09:19;;;;;;;2.67;2.28;;;2.40;99.90;;;;;;4416814;32;20118;-55
2020/12/12 12:11:30;;;;;;;5.72;2.95;;;2.50;99.90;;;;;;4411129;32;20088;-57
2020/12/12 12:13:43;;;;;;;3.33;2.72;;;2.60;99.90;;;;;;4406355;32;20078;-55
2020/12/12 12:16:09;;;;;;;4.18;2.85;;;2.70;99.90;;;;;;4427722;32;20085;-54
2020/12/12 12:18:35;;;;;;;9.63;3.10;;;2.70;99.90;;;;;;4425962;32;20065;-55
2020/12/12 12:21:02;;;;;;;13.20;5.50;;;2.70;99.90;;;;;;4431544;32;20094;-55
2020/12/12 12:23:27;;;;;;;1.83;1.70;;;2.70;99.90;;;;;;4414000;32;20170;-54
2020/12/12 12:25:54;;;;;;;7.32;3.70;;;2.70;99.90;;;;;;4420354;32;20502;-56
2020/12/12 12:28:20;;;;;;;3.83;3.08;;;2.70;99.90;;;;;;4400144;32;20538;-53
2020/12/12 12:30:46;;;;;;;2.33;2.15;;;2.80;99.90;;;;;;4408797;32;20081;-52
2020/12/12 12:33:12;;;;;;;4.22;3.15;;;2.80;99.90;;;;;;4404000;32;20424;-56
2020/12/12 12:35:37;;;;;;;7.65;3.40;;;2.80;99.90;;;;;;4406127;32;20116;-56
2020/12/12 12:38:03;;;;;;;7.70;4.00;;;2.80;99.90;;;;;;4419280;32;20077;-55
2020/12/12 12:40:28;;;;;;;3.65;3.20;;;2.80;99.90;;;;;;4418292;32;20106;-56
2020/12/12 12:42:57;;;;;;;2.70;2.20;;;2.90;99.90;;;;;;4425780;32;20130;-57
2020/12/12 12:45:23;;;;;;;3.12;2.42;;;3.00;99.90;;;;;;4413851;32;20500;-58
2020/12/12 12:47:48;;;;;;;3.42;3.08;;;3.00;99.90;;;;;;4415673;32;20569;-54
2020/12/12 12:50:14;;;;;;;2.15;2.03;;;3.00;99.90;;;;;;4431160;32;20065;-58
2020/12/12 12:52:40;;;;;;;34.60;3.33;;;3.10;99.90;;;;;;4429948;32;20089;-57
2020/12/12 12:55:06;;;;;;;4.65;3.35;;;3.00;99.90;;;;;;4430116;32;20090;-55
2020/12/12 12:57:32;;;;;;;4.87;2.78;;;3.00;99.90;;;;;;4421216;32;20066;-55
2020/12/12 12:59:57;;;;;;;7.60;4.18;;;3.10;99.90;;;;;;4416522;32;20469;-57
2020/12/12 13:02:23;;;;;;;3.05;2.12;;;3.20;99.90;;;;;;4431341;32;20089;-56